Time;durP1;ratioP1;P1;durP2;ratioP2;P2;SDS_P1;SDS_P2;PMS_P1;PMS_P2;Temp;Humidity;BMP_temperature;BMP_pressure;BME280_temperature;BME280_humidity;BME280_pressure;Samples;Min_cycle;Max_cycle;Signal;HPM_P1;HPM_P2
2021/09/13 00:01:00;;;;;;;;;;;;;;;19.99;62.11;101640.00;5055884;28;1057;-60
2021/09/13 00:03:25;;;;;;;;;;;;;;;19.99;62.03;101642.72;5055583;28;1700;-60
2021/09/13 00:05:50;;;;;;;;;;;;;;;19.99;62.01;101638.16;5056366;28;819;-60
2021/09/13 00:08:15;;;;;;;;;;;;;;;19.97;62.26;101639.28;5054898;28;831;-61
2021/09/13 00:10:43;;;;;;;;;;;;;;;19.97;61.95;101639.28;5054880;28;961;-60
2021/09/13 00:13:08;;;;;;;;;;;;;;;19.97;62.38;101639.28;5055073;28;842;-59
2021/09/13 00:15:33;;;;;;;;;;;;;;;19.95;61.97;101630.47;5053384;28;1562;-59
2021/09/13 00:17:58;;;;;;;;;;;;;;;19.94;62.48;101631.44;5054581;28;1890;-59
2021/09/13 00:20:23;;;;;;;;;;;;;;;19.93;62.34;101636.00;5053942;28;1556;-60
2021/09/13 00:22:48;;;;;;;;;;;;;;;19.93;62.18;101627.03;5055599;28;867;-59
2021/09/13 00:25:13;;;;;;;;;;;;;;;19.92;62.43;101628.03;5055791;28;1655;-59
2021/09/13 00:27:38;;;;;;;;;;;;;;;19.89;61.74;101631.88;5055493;28;1339;-59
2021/09/13 00:30:03;;;;;;;;;;;;;;;19.88;62.57;101621.22;5055781;28;848;-59
2021/09/13 00:32:28;;;;;;;;;;;;;;;19.92;62.36;101630.72;5054926;28;1762;-59
2021/09/13 00:34:53;;;;;;;;;;;;;;;19.89;61.83;101621.03;5054168;28;1360;-59
2021/09/13 00:37:18;;;;;;;;;;;;;;;19.88;61.79;101624.78;5055334;28;1998;-59
2021/09/13 00:39:43;;;;;;;;;;;;;;;19.89;61.92;101621.03;5054196;28;1800;-60
2021/09/13 00:42:08;;;;;;;;;;;;;;;19.88;62.12;101623.91;5035759;28;978;-60
2021/09/13 00:44:34;;;;;;;;;;;;;;;19.86;62.08;101620.50;5035298;28;1787;-59
2021/09/13 00:47:00;;;;;;;;;;;;;;;19.86;62.17;101615.09;5035952;28;815;-60
2021/09/13 00:49:25;;;;;;;;;;;;;;;19.85;61.57;101622.34;5035551;28;822;-60
2021/09/13 00:51:50;;;;;;;;;;;;;;;19.85;61.38;101614.22;5035400;28;988;-60
2021/09/13 00:54:15;;;;;;;;;;;;;;;19.85;61.96;101621.50;5035511;28;1040;-61
2021/09/13 00:56:43;;;;;;;;;;;;;;;19.82;61.82;101622.63;5035454;28;1902;-61
2021/09/13 00:59:09;;;;;;;;;;;;;;;19.81;61.89;101618.22;5035137;28;870;-61
2021/09/13 01:01:34;;;;;;;;;;;;;;;19.80;61.86;101619.19;5037522;28;1757;-61
2021/09/13 01:03:59;;;;;;;;;;;;;;;19.81;61.61;101623.63;5055121;28;914;-61
2021/09/13 01:06:24;;;;;;;;;;;;;;;19.81;61.91;101620.91;5054947;28;851;-61
2021/09/13 01:08:49;;;;;;;;;;;;;;;19.80;62.02;101618.34;5055218;28;842;-61
2021/09/13 01:11:14;;;;;;;;;;;;;;;19.77;62.49;101622.19;5055227;28;947;-61
2021/09/13 01:13:39;;;;;;;;;;;;;;;19.79;61.86;101620.19;5055280;28;924;-61
2021/09/13 01:16:04;;;;;;;;;;;;;;;19.78;61.63;101613.06;5054913;28;826;-60
2021/09/13 01:18:29;;;;;;;;;;;;;;;19.77;62.19;101617.63;5054764;28;1890;-60
2021/09/13 01:20:54;;;;;;;;;;;;;;;19.75;61.87;101614.19;5054940;28;1084;-61
2021/09/13 01:23:19;;;;;;;;;;;;;;;19.75;61.91;101619.59;5055027;28;926;-61
2021/09/13 01:25:45;;;;;;;;;;;;;;;19.72;62.16;101622.59;5054320;28;1889;-61
2021/09/13 01:28:10;;;;;;;;;;;;;;;19.74;62.14;101614.34;5055383;28;1109;-61
2021/09/13 01:30:35;;;;;;;;;;;;;;;19.71;61.44;101623.59;5055021;28;851;-60
2021/09/13 01:33:00;;;;;;;;;;;;;;;19.70;61.85;101618.34;5054902;28;1001;-61
2021/09/13 01:35:25;;;;;;;;;;;;;;;19.69;61.81;101616.63;5054471;28;775;-61
2021/09/13 01:37:50;;;;;;;;;;;;;;;19.68;62.43;101633.84;5058874;28;1961;-61
2021/09/13 01:40:15;;;;;;;;;;;;;;;19.69;61.94;101620.19;5058907;28;855;-61
2021/09/13 01:42:40;;;;;;;;;;;;;;;19.67;62.33;101615.91;5059080;28;1060;-61
2021/09/13 01:45:05;;;;;;;;;;;;;;;19.66;61.67;101623.16;5059066;28;935;-61
2021/09/13 01:47:30;;;;;;;;;;;;;;;19.65;61.29;101628.72;5059262;28;1447;-60
2021/09/13 01:49:55;;;;;;;;;;;;;;;19.64;61.38;101624.28;5058652;28;994;-60
2021/09/13 01:52:20;;;;;;;;;;;;;;;19.64;62.31;101627.84;5047323;28;1723;-60
2021/09/13 01:54:45;;;;;;;;;;;;;;;19.64;61.44;101621.59;5038413;28;1790;-59
2021/09/13 01:57:11;;;;;;;;;;;;;;;19.62;62.17;101623.59;5038499;28;1887;-60
2021/09/13 01:59:36;;;;;;;;;;;;;;;19.63;61.82;101615.34;5038614;28;811;-60
2021/09/13 02:02:01;;;;;;;;;;;;;;;19.62;61.21;101615.47;5038687;28;994;-60
2021/09/13 02:04:26;;;;;;;;;;;;;;;19.60;61.79;101615.59;5038302;28;1000;-59
2021/09/13 02:06:51;;;;;;;;;;;;;;;19.60;61.54;101614.75;5038541;28;1432;-59
2021/09/13 02:09:16;;;;;;;;;;;;;;;19.60;61.63;101612.91;5038525;28;855;-59
2021/09/13 02:11:41;;;;;;;;;;;;;;;19.57;61.82;101615.88;5038285;28;799;-58
2021/09/13 02:14:06;;;;;;;;;;;;;;;19.56;62.52;101614.16;5038600;28;863;-59
2021/09/13 02:16:31;;;;;;;;;;;;;;;19.55;62.04;101604.34;5038160;28;1953;-60
2021/09/13 02:18:57;;;;;;;;;;;;;;;19.55;62.37;101615.16;5038175;28;1816;-59
2021/09/13 02:21:22;;;;;;;;;;;;;;;19.57;61.68;101599.66;5038037;28;1855;-59
2021/09/13 02:23:47;;;;;;;;;;;;;;;19.55;61.22;101606.19;5038231;28;994;-59
2021/09/13 02:26:12;;;;;;;;;;;;;;;19.53;62.37;101598.22;5038253;28;914;-59
2021/09/13 02:28:38;;;;;;;;;;;;;;;19.53;61.50;101608.16;5037655;28;1109;-59
2021/09/13 02:31:03;;;;;;;;;;;;;;;19.50;61.62;101601.22;5038105;28;930;-60
2021/09/13 02:33:28;;;;;;;;;;;;;;;19.48;61.75;101602.31;5038405;28;1065;-59
2021/09/13 02:35:53;;;;;;;;;;;;;;;19.49;61.66;101602.19;5038176;28;981;-59
2021/09/13 02:38:18;;;;;;;;;;;;;;;19.48;62.15;101595.06;5041492;28;1917;-59
2021/09/13 02:40:43;;;;;;;;;;;;;;;19.47;61.87;101603.31;5057684;28;1006;-59
2021/09/13 02:43:08;;;;;;;;;;;;;;;19.43;61.47;101595.47;5057649;28;929;-59
2021/09/13 02:45:33;;;;;;;;;;;;;;;19.45;61.80;101595.34;5057954;28;885;-59
2021/09/13 02:47:58;;;;;;;;;;;;;;;19.44;61.74;101599.03;5057032;28;1617;-59
2021/09/13 02:50:23;;;;;;;;;;;;;;;19.45;61.80;101595.34;5057875;28;938;-61
2021/09/13 02:52:48;;;;;;;;;;;;;;;19.41;61.81;101583.09;5056039;28;2026;-60
2021/09/13 02:55:14;;;;;;;;;;;;;;;19.41;61.41;101593.91;5057610;28;1005;-60
2021/09/13 02:57:39;;;;;;;;;;;;;;;19.42;61.99;101598.31;5056878;28;1901;-60
2021/09/13 03:00:04;;;;;;;;;;;;;;;19.40;61.52;101605.69;5057159;28;1728;-60
2021/09/13 03:02:29;;;;;;;;;;;;;;;19.39;61.42;101606.69;5057519;28;1012;-59
2021/09/13 03:04:54;;;;;;;;;;;;;;;19.39;61.24;101601.28;5057282;28;1049;-59
2021/09/13 03:07:19;;;;;;;;;;;;;;;19.38;61.48;101604.97;5057639;28;850;-59
2021/09/13 03:09:44;;;;;;;;;;;;;;;19.38;62.25;101604.97;5057089;28;930;-59
2021/09/13 03:12:09;;;;;;;;;;;;;;;19.36;60.92;101602.41;5056955;28;854;-59
2021/09/13 03:14:34;;;;;;;;;;;;;;;19.38;61.49;101602.28;5057134;28;867;-59
2021/09/13 03:16:59;;;;;;;;;;;;;;;19.36;61.36;101601.56;5055747;28;1953;-60
2021/09/13 03:19:24;;;;;;;;;;;;;;;19.32;61.26;101595.59;5056361;28;1978;-59
2021/09/13 03:21:49;;;;;;;;;;;;;;;19.35;60.97;101597.13;5057286;28;1639;-60
2021/09/13 03:24:15;;;;;;;;;;;;;;;19.31;61.23;101601.13;5056805;28;974;-59
2021/09/13 03:26:40;;;;;;;;;;;;;;;19.31;61.32;101599.28;5056534;28;1033;-59
2021/09/13 03:29:05;;;;;;;;;;;;;;;19.30;61.07;101596.72;5056327;28;1399;-60
2021/09/13 03:31:30;;;;;;;;;;;;;;;19.31;61.13;101593.03;5056533;28;926;-60
2021/09/13 03:33:55;;;;;;;;;;;;;;;19.30;61.15;101599.41;5056941;28;1286;-60
2021/09/13 03:36:20;;;;;;;;;;;;;;;19.32;60.81;101603.69;5056486;28;984;-60
2021/09/13 03:38:45;;;;;;;;;;;;;;;19.29;61.86;101595.88;5056148;28;2008;-60
2021/09/13 03:41:10;;;;;;;;;;;;;;;19.28;61.87;101598.69;5056807;28;902;-60
2021/09/13 03:43:35;;;;;;;;;;;;;;;19.26;61.67;101600.69;5056612;28;866;-60
2021/09/13 03:46:00;;;;;;;;;;;;;;;19.27;61.31;101589.75;5056822;28;1105;-61
2021/09/13 03:48:25;;;;;;;;;;;;;;;19.24;61.65;101597.25;5056613;28;910;-61
2021/09/13 03:50:51;;;;;;;;;;;;;;;19.23;62.18;101590.16;5056537;28;1029;-60
2021/09/13 03:53:16;;;;;;;;;;;;;;;19.23;62.29;101590.16;5056171;28;922;-61
2021/09/13 03:55:41;;;;;;;;;;;;;;;19.24;61.43;101597.25;5056505;28;946;-61
2021/09/13 03:58:06;;;;;;;;;;;;;;;19.23;62.01;101600.94;5044978;28;1906;-61
2021/09/13 04:00:31;;;;;;;;;;;;;;;19.24;61.94;101597.25;5035896;28;935;-61
2021/09/13 04:02:56;;;;;;;;;;;;;;;19.21;62.33;101589.41;5036069;28;938;-60
2021/09/13 04:05:25;;;;;;;;;;;;;;;19.21;61.52;101597.53;5037343;28;1805;-61
2021/09/13 04:12:44;;;;;;;;;;;;;;;19.19;62.52;101594.09;5034624;28;989;-61
2021/09/13 04:15:09;;;;;;;;;;;;;;;19.18;62.62;101593.25;5033077;28;914;-60
2021/09/13 04:17:34;;;;;;;;;;;;;;;19.19;61.73;101596.81;5034538;28;1983;-60
2021/09/13 04:20:00;;;;;;;;;;;;;;;19.17;62.51;101594.25;5034629;28;1056;-60
2021/09/13 04:22:25;;;;;;;;;;;;;;;19.18;62.85;101597.78;5034614;28;903;-60
2021/09/13 04:24:50;;;;;;;;;;;;;;;19.18;61.94;101603.19;5034179;28;938;-60
2021/09/13 04:27:15;;;;;;;;;;;;;;;19.17;62.51;101601.53;5054016;28;1829;-60
2021/09/13 04:29:40;;;;;;;;;;;;;;;19.16;62.78;101597.97;5054890;28;1106;-60
2021/09/13 04:32:05;;;;;;;;;;;;;;;19.16;62.81;101599.81;5054961;28;842;-59
2021/09/13 04:34:30;;;;;;;;;;;;;;;19.16;63.14;101610.63;5055898;28;1007;-60
2021/09/13 04:36:55;;;;;;;;;;;;;;;19.16;62.61;101616.88;5055734;28;1910;-59
2021/09/13 04:39:20;;;;;;;;;;;;;;;19.15;62.56;101608.91;5055542;28;858;-59
2021/09/13 04:41:45;;;;;;;;;;;;;;;19.15;62.57;101608.91;5055523;28;829;-59
2021/09/13 04:44:10;;;;;;;;;;;;;;;19.12;62.53;101604.63;5055672;28;847;-59
2021/09/13 04:46:36;;;;;;;;;;;;;;;19.12;63.02;101598.38;5054377;28;1632;-60
2021/09/13 04:49:01;;;;;;;;;;;;;;;19.11;62.54;101597.50;5055867;28;808;-59
2021/09/13 04:51:27;;;;;;;;;;;;;;;19.12;63.27;101592.97;5055180;28;928;-60
2021/09/13 04:53:52;;;;;;;;;;;;;;;19.11;63.21;101602.06;5055551;28;816;-59
2021/09/13 04:56:17;;;;;;;;;;;;;;;19.20;63.24;101593.13;5055411;28;1036;-59
2021/09/13 04:58:42;;;;;;;;;;;;;;;19.24;62.92;101598.13;5052524;28;1890;-59
2021/09/13 05:01:08;;;;;;;;;;;;;;;19.26;63.52;101597.97;5044373;28;1809;-61
2021/09/13 05:03:33;;;;;;;;;;;;;;;19.26;63.22;101603.38;5035360;28;853;-60
2021/09/13 05:05:58;;;;;;;;;;;;;;;19.28;64.06;101610.38;5035202;28;799;-61
2021/09/13 05:08:23;;;;;;;;;;;;;;;19.27;62.83;101608.66;5035658;28;1839;-61
2021/09/13 05:10:48;;;;;;;;;;;;;;;19.29;63.07;101614.78;5034258;28;1680;-61
2021/09/13 05:13:13;;;;;;;;;;;;;;;19.35;65.22;101610.66;5035400;28;1048;-60
2021/09/13 05:15:38;;;;;;;;;;;;;;;19.39;65.11;101612.94;5035242;28;910;-60
2021/09/13 05:18:03;;;;;;;;;;;;;;;19.39;67.10;101609.41;5034773;28;1893;-62
2021/09/13 05:20:28;;;;;;;;;;;;;;;19.37;66.20;101603.25;5035196;28;1013;-62
2021/09/13 05:22:54;;;;;;;;;;;;;;;19.32;65.56;101610.97;5045148;28;1585;-62
2021/09/13 05:25:20;;;;;;;;;;;;;;;19.34;65.56;101614.38;5043435;28;1331;-62
2021/09/13 05:27:45;;;;;;;;;;;;;;;19.34;64.93;101620.63;5044401;28;1589;-62
2021/09/13 05:30:11;;;;;;;;;;;;;;;19.37;64.78;101622.19;5045616;28;1648;-62
2021/09/13 05:32:36;;;;;;;;;;;;;;;19.35;65.24;101624.16;5045325;28;1755;-62
2021/09/13 05:35:01;;;;;;;;;;;;;;;19.34;64.39;101622.50;5043878;28;1621;-62
2021/09/13 05:37:26;;;;;;;;;;;;;;;19.33;64.13;101618.06;5046151;28;1922;-62
2021/09/13 05:39:51;;;;;;;;;;;;;;;19.32;64.84;101616.38;5042823;28;1676;-62
2021/09/13 05:42:16;;;;;;;;;;;;;;;19.30;64.35;101624.59;5042411;28;1722;-62
2021/09/13 05:44:42;;;;;;;;;;;;;;;19.30;64.25;101624.59;5045286;28;1631;-61
2021/09/13 05:47:07;;;;;;;;;;;;;;;19.27;64.46;101634.81;5043012;28;1643;-62
2021/09/13 05:49:32;;;;;;;;;;;;;;;19.25;64.56;101636.81;5035020;28;1012;-62
2021/09/13 05:51:57;;;;;;;;;;;;;;;19.27;64.98;101626.72;5042583;28;1815;-62
2021/09/13 05:54:25;;;;;;;;;;;;;;;19.27;64.59;101629.41;5045338;28;1546;-62
2021/09/13 05:56:50;;;;;;;;;;;;;;;19.25;64.84;101626.84;5054289;28;1898;-62
2021/09/13 05:59:15;;;;;;;;;;;;;;;19.25;64.82;101626.00;5054624;28;842;-62
2021/09/13 06:01:40;;;;;;;;;;;;;;;19.24;65.17;101616.19;5054458;28;1052;-62
2021/09/13 06:04:05;;;;;;;;;;;;;;;19.24;65.08;101625.13;5054535;28;1001;-62
2021/09/13 06:06:30;;;;;;;;;;;;;;;19.21;65.75;101624.56;5054510;28;1017;-62
2021/09/13 06:08:55;;;;;;;;;;;;;;;19.20;64.93;101634.50;5049101;28;1818;-62
2021/09/13 06:11:26;;;;;;;;;;;;;;;19.19;65.35;101634.63;5044020;28;1694;-62
2021/09/13 06:13:51;;;;;;;;;;;;;;;19.18;65.65;101641.03;5040895;28;1480;-62
2021/09/13 06:16:16;;;;;;;;;;;;;;;19.20;65.17;101644.47;5034756;28;1017;-62
2021/09/13 06:18:41;;;;;;;;;;;;;;;19.19;65.20;101638.19;5034938;28;1894;-62
2021/09/13 06:21:06;;;;;;;;;;;;;;;19.17;64.23;101640.19;5034428;28;994;-62
2021/09/13 06:23:31;;;;;;;;;;;;;;;19.18;65.30;101638.34;5019414;28;1049;-62
2021/09/13 06:25:56;;;;;;;;;;;;;;;19.17;65.08;101634.78;5037714;28;886;-62
2021/09/13 06:28:21;;;;;;;;;;;;;;;19.17;64.38;101631.25;5040132;28;1589;-62
2021/09/13 06:30:47;;;;;;;;;;;;;;;19.16;64.88;101643.03;5057349;28;951;-62
2021/09/13 06:33:13;;;;;;;;;;;;;;;19.18;64.75;101643.72;5057375;28;834;-62
2021/09/13 06:35:38;;;;;;;;;;;;;;;19.17;64.91;101640.19;5057590;28;811;-62
2021/09/13 06:38:03;;;;;;;;;;;;;;;19.17;65.22;101640.19;5057235;28;1989;-62
2021/09/13 06:40:29;;;;;;;;;;;;;;;19.18;65.05;101643.72;5057689;28;854;-62
2021/09/13 06:42:54;;;;;;;;;;;;;;;19.18;64.69;101654.53;5057257;28;862;-62
2021/09/13 06:45:21;;;;;;;;;;;;;;;19.19;65.04;101653.56;5057176;28;854;-62
2021/09/13 06:47:46;;;;;;;;;;;;;;;19.18;65.03;101663.50;5057196;28;849;-62
2021/09/13 06:50:11;;;;;;;;;;;;;;;19.18;64.44;101658.09;5037634;28;1692;-62
2021/09/13 06:52:37;;;;;;;;;;;;;;;19.18;65.10;101662.66;5037202;28;839;-62
2021/09/13 06:55:02;;;;;;;;;;;;;;;19.19;65.20;101664.38;5037004;28;911;-62
2021/09/13 06:57:29;;;;;;;;;;;;;;;19.19;65.14;101661.66;5036969;28;1951;-62
2021/09/13 06:59:54;;;;;;;;;;;;;;;19.19;65.54;101661.66;5037102;28;847;-62
2021/09/13 07:02:19;;;;;;;;;;;;;;;19.18;65.35;101657.25;5037132;28;855;-62
2021/09/13 07:04:44;;;;;;;;;;;;;;;19.21;64.51;101662.38;5038285;28;1839;-62
2021/09/13 07:07:09;;;;;;;;;;;;;;;19.21;64.78;101665.09;5036811;28;910;-62
2021/09/13 07:09:34;;;;;;;;;;;;;;;19.17;65.15;101661.78;5037001;28;1700;-62
2021/09/13 07:11:59;;;;;;;;;;;;;;;19.19;65.41;101667.91;5036826;28;1076;-62
2021/09/13 07:14:24;;;;;;;;;;;;;;;19.19;65.79;101669.75;5036917;28;997;-62
2021/09/13 07:16:49;;;;;;;;;;;;;;;19.21;65.89;101678.59;5036655;28;1957;-62
2021/09/13 07:19:15;;;;;;;;;;;;;;;19.21;65.15;101673.19;5036622;28;953;-62
2021/09/13 07:21:40;;;;;;;;;;;;;;;19.23;66.00;101672.06;5036671;28;823;-62
2021/09/13 07:24:05;;;;;;;;;;;;;;;19.21;65.28;101678.59;5036596;28;792;-62
2021/09/13 07:26:30;;;;;;;;;;;;;;;19.21;65.92;101684.00;5036748;28;779;-62
2021/09/13 07:28:55;;;;;;;;;;;;;;;19.19;66.08;101676.03;5048177;28;1569;-62
2021/09/13 07:31:20;;;;;;;;;;;;;;;19.20;66.00;101679.59;5039195;28;1337;-62
2021/09/13 07:33:45;;;;;;;;;;;;;;;19.14;66.09;101685.56;5035538;28;935;-62
2021/09/13 07:36:10;;;;;;;;;;;;;;;19.12;66.22;101687.53;5036484;28;839;-62
2021/09/13 07:38:35;;;;;;;;;;;;;;;19.15;66.23;101692.66;5036114;28;1910;-62
2021/09/13 07:41:01;;;;;;;;;;;;;;;19.16;66.14;101697.94;5036477;28;787;-62
2021/09/13 07:43:26;;;;;;;;;;;;;;;19.18;65.93;101692.38;5036094;28;993;-62
2021/09/13 07:45:51;;;;;;;;;;;;;;;19.20;66.04;101698.50;5036197;28;953;-62
2021/09/13 07:48:17;;;;;;;;;;;;;;;19.20;66.64;101699.34;5037405;28;1326;-62
2021/09/13 07:50:42;;;;;;;;;;;;;;;19.20;66.51;101696.66;5036224;28;839;-62
2021/09/13 07:53:08;;;;;;;;;;;;;;;19.19;66.27;101696.78;5036108;28;1005;-62
2021/09/13 07:55:33;;;;;;;;;;;;;;;19.17;66.69;101693.41;5036068;28;1639;-62
2021/09/13 07:57:58;;;;;;;;;;;;;;;19.17;66.61;101698.81;5035998;28;1952;-62
2021/09/13 08:00:23;;;;;;;;;;;;;;;19.19;65.49;101703.06;5036024;28;839;-63
2021/09/13 08:02:48;;;;;;;;;;;;;;;19.21;66.79;101708.31;5035877;28;903;-62
2021/09/13 08:05:13;;;;;;;;;;;;;;;19.22;66.78;101713.59;5036199;28;969;-62
2021/09/13 08:07:38;;;;;;;;;;;;;;;19.22;66.56;101707.34;5042487;28;1748;-63
2021/09/13 08:10:04;;;;;;;;;;;;;;;19.21;67.05;101708.31;5055747;28;870;-63
2021/09/13 08:12:29;;;;;;;;;;;;;;;19.24;66.81;101705.34;5055737;28;839;-63
2021/09/13 08:14:54;;;;;;;;;;;;;;;19.23;66.83;101711.75;5055553;28;946;-63
2021/09/13 08:17:19;;;;;;;;;;;;;;;19.22;67.87;101719.00;5055385;28;1893;-63
2021/09/13 08:19:45;;;;;;;;;;;;;;;19.23;67.23;101714.44;5054333;28;1718;-63
2021/09/13 08:22:10;;;;;;;;;;;;;;;19.25;67.16;101718.75;5055460;28;807;-63
2021/09/13 08:24:35;;;;;;;;;;;;;;;19.27;67.85;101715.91;5055398;28;882;-63
2021/09/13 08:27:00;;;;;;;;;;;;;;;19.28;67.29;101717.63;5054136;28;1105;-64
2021/09/13 08:29:25;;;;;;;;;;;;;;;19.28;67.67;101723.03;5055301;28;1013;-63
2021/09/13 08:31:51;;;;;;;;;;;;;;;19.31;68.10;101720.06;5055157;28;1064;-63
2021/09/13 08:34:17;;;;;;;;;;;;;;;19.30;67.24;101729.16;5055180;28;819;-63
2021/09/13 08:36:42;;;;;;;;;;;;;;;19.31;67.82;101726.31;5055247;28;1977;-63
2021/09/13 08:39:07;;;;;;;;;;;;;;;19.33;66.88;101728.88;5050046;28;1611;-63
2021/09/13 08:41:32;;;;;;;;;;;;;;;19.36;66.85;101734.84;5036964;28;1440;-63
2021/09/13 08:43:57;;;;;;;;;;;;;;;19.38;66.91;101734.72;5055024;28;811;-63
2021/09/13 08:46:25;;;;;;;;;;;;;;;19.36;66.88;101732.16;5054842;28;887;-63
2021/09/13 08:48:55;;;;;;;;;;;;;;;19.38;67.13;101740.13;5053574;28;1571;-63
2021/09/13 08:51:30;;;;;;;;;;;;;;;19.38;67.16;101740.13;5055073;28;791;-63
2021/09/13 08:53:55;;;;;;;;;;;;;;;19.36;66.77;101734.00;5055043;28;802;-63
2021/09/13 08:56:24;;;;;;;;;;;;;;;19.38;67.31;101735.59;5054789;28;846;-63
2021/09/13 08:58:49;;;;;;;;;;;;;;;19.41;66.52;101735.31;5054728;28;1955;-63
2021/09/13 09:01:15;;;;;;;;;;;;;;;19.42;66.21;101736.19;5054604;28;954;-63
2021/09/13 09:03:42;;;;;;;;;;;;;;;19.40;67.01;101738.16;5055007;28;879;-63
2021/09/13 09:06:07;;;;;;;;;;;;;;;19.41;67.18;101740.72;5055100;28;930;-63
2021/09/13 09:08:32;;;;;;;;;;;;;;;19.38;66.25;101732.03;5040738;28;1685;-63
2021/09/13 09:10:57;;;;;;;;;;;;;;;19.35;67.26;101735.84;5034819;28;823;-63
2021/09/13 09:13:23;;;;;;;;;;;;;;;19.32;66.66;101738.00;5034700;28;800;-63
2021/09/13 09:15:48;;;;;;;;;;;;;;;19.35;66.63;101740.41;5034664;28;1031;-63
2021/09/13 09:18:13;;;;;;;;;;;;;;;19.25;67.23;101751.16;5034652;28;1965;-63
2021/09/13 09:20:38;;;;;;;;;;;;;;;19.18;67.18;101739.16;5033635;28;1016;-63
2021/09/13 09:23:03;;;;;;;;;;;;;;;19.23;66.59;101752.28;5034414;28;819;-63
2021/09/13 09:25:28;;;;;;;;;;;;;;;19.29;66.98;101752.63;5034552;28;788;-63
2021/09/13 09:27:57;;;;;;;;;;;;;;;19.27;67.40;101751.91;5034844;28;1149;-63
2021/09/13 09:30:22;;;;;;;;;;;;;;;19.17;67.67;101759.06;5034466;28;918;-64
2021/09/13 09:32:47;;;;;;;;;;;;;;;19.16;67.52;101745.72;5034687;28;839;-63
2021/09/13 09:35:12;;;;;;;;;;;;;;;19.27;67.27;101754.59;5034607;28;930;-63
2021/09/13 09:37:37;;;;;;;;;;;;;;;19.22;66.56;101755.97;5042917;28;1914;-64
2021/09/13 09:40:05;;;;;;;;;;;;;;;19.26;67.10;101757.44;5043802;28;1643;-63
2021/09/13 09:42:30;;;;;;;;;;;;;;;19.27;67.05;101756.44;5045697;28;1632;-63
2021/09/13 09:44:55;;;;;;;;;;;;;;;19.28;67.40;101747.34;5045717;28;1668;-63
2021/09/13 09:47:20;;;;;;;;;;;;;;;19.31;66.56;101749.78;5053936;28;1772;-63
2021/09/13 09:49:45;;;;;;;;;;;;;;;19.18;67.36;101744.56;5054290;28;993;-63
2021/09/13 09:52:10;;;;;;;;;;;;;;;19.04;67.64;101750.31;5046491;28;1733;-63
2021/09/13 09:54:35;;;;;;;;;;;;;;;18.94;67.96;101747.56;5016308;28;915;-63
2021/09/13 09:57:00;;;;;;;;;;;;;;;19.07;67.40;101753.63;5034679;28;1949;-63
2021/09/13 09:59:25;;;;;;;;;;;;;;;19.08;67.37;101746.38;5037824;28;895;-63
2021/09/13 10:01:56;;;;;;;;;;;;;;;19.06;67.46;101751.03;5037618;28;965;-63
2021/09/13 10:04:22;;;;;;;;;;;;;;;19.12;67.29;101745.13;5046367;28;1749;-63
2021/09/13 10:06:47;;;;;;;;;;;;;;;19.11;67.21;101737.16;5057436;28;1748;-63
2021/09/13 10:09:12;;;;;;;;;;;;;;;19.15;67.62;101741.31;5057806;28;1797;-63
2021/09/13 10:11:39;;;;;;;;;;;;;;;19.23;67.06;101744.19;5040437;28;993;-63
2021/09/13 10:14:04;;;;;;;;;;;;;;;19.14;67.66;101748.56;5058072;28;934;-63
2021/09/13 10:16:31;;;;;;;;;;;;;;;18.99;67.88;101739.91;5045802;28;1800;-63
2021/09/13 10:18:56;;;;;;;;;;;;;;;19.02;67.87;101734.25;5038218;28;1906;-63
2021/09/13 10:21:21;;;;;;;;;;;;;;;18.98;68.70;101727.41;5038096;28;1689;-63
2021/09/13 10:23:46;;;;;;;;;;;;;;;19.16;68.28;101729.50;5038227;28;898;-63
2021/09/13 10:26:11;;;;;;;;;;;;;;;19.21;68.32;101732.66;5037910;28;807;-63
2021/09/13 10:28:36;;;;;;;;;;;;;;;19.22;67.65;101726.25;5038510;28;1701;-63
2021/09/13 10:31:01;;;;;;;;;;;;;;;19.16;68.30;101735.78;5039265;28;1871;-63
2021/09/13 10:33:26;;;;;;;;;;;;;;;19.25;67.52;101726.00;5037890;28;1613;-63
2021/09/13 10:35:51;;;;;;;;;;;;;;;19.26;68.05;101731.25;5037564;28;1469;-63
2021/09/13 10:38:17;;;;;;;;;;;;;;;19.32;68.08;101725.34;5039153;28;1906;-63
2021/09/13 10:40:42;;;;;;;;;;;;;;;19.31;68.08;101720.06;5051093;28;1611;-63
2021/09/13 10:43:07;;;;;;;;;;;;;;;19.38;67.90;101723.91;5047589;28;1754;-63
2021/09/13 10:45:32;;;;;;;;;;;;;;;19.31;67.47;101717.34;5045235;28;1538;-63
2021/09/13 10:47:57;;;;;;;;;;;;;;;19.31;67.21;101714.66;5050419;28;1533;-63
2021/09/13 10:50:22;;;;;;;;;;;;;;;19.41;68.31;101720.94;5038354;28;1765;-63
2021/09/13 10:52:47;;;;;;;;;;;;;;;19.56;67.28;101713.34;5044773;28;1433;-63
2021/09/13 10:55:13;;;;;;;;;;;;;;;19.61;66.97;101713.81;5042797;28;1523;-63
2021/09/13 10:57:38;;;;;;;;;;;;;;;19.31;67.66;101717.34;5036965;28;1949;-63
2021/09/13 11:00:03;;;;;;;;;;;;;;;19.30;67.67;101710.22;5036841;28;1545;-63
2021/09/13 11:02:28;;;;;;;;;;;;;;;19.24;67.50;101716.16;5046738;28;1740;-63
2021/09/13 11:04:53;;;;;;;;;;;;;;;19.07;67.41;101712.25;5045308;28;1653;-61
2021/09/13 11:07:18;;;;;;;;;;;;;;;19.02;68.03;101712.63;5038107;28;1646;-61
2021/09/13 11:09:43;;;;;;;;;;;;;;;19.07;67.35;101704.13;5046107;28;1695;-62
2021/09/13 11:12:10;;;;;;;;;;;;;;;19.22;67.97;101696.53;5055265;28;1531;-63
2021/09/13 11:14:35;;;;;;;;;;;;;;;19.18;68.01;101704.03;5052778;28;2010;-62
2021/09/13 11:17:02;;;;;;;;;;;;;;;19.29;67.90;101703.13;5044368;28;1965;-62
2021/09/13 11:19:27;;;;;;;;;;;;;;;19.07;68.04;101706.84;5044051;28;1626;-63
2021/09/13 11:21:52;;;;;;;;;;;;;;;19.07;68.44;101705.00;5044290;28;1537;-62
2021/09/13 11:24:18;;;;;;;;;;;;;;;19.09;67.47;101696.75;5041687;28;1680;-60
2021/09/13 11:26:43;;;;;;;;;;;;;;;19.79;67.89;101709.44;5044469;28;1579;-61
2021/09/13 11:29:08;;;;;;;;;;;;;;;20.19;65.25;101700.41;5037690;28;1783;-61
2021/09/13 11:31:33;;;;;;;;;;;;;;;19.81;65.43;101698.50;5041929;28;1565;-62
2021/09/13 11:33:58;;;;;;;;;;;;;;;19.41;66.93;101702.88;5036298;28;1764;-62
2021/09/13 11:36:24;;;;;;;;;;;;;;;19.42;66.20;101698.31;5045061;28;1643;-62
2021/09/13 11:38:49;;;;;;;;;;;;;;;19.47;66.91;101690.69;5039440;28;1914;-62
2021/09/13 11:41:14;;;;;;;;;;;;;;;19.38;67.06;101691.47;5039808;28;1692;-62
2021/09/13 11:43:39;;;;;;;;;;;;;;;19.31;67.59;101687.63;5055687;28;1583;-62
2021/09/13 11:46:04;;;;;;;;;;;;;;;19.24;66.81;101684.59;5055144;28;1291;-62
2021/09/13 11:48:29;;;;;;;;;;;;;;;19.33;68.24;101693.75;5056290;28;780;-62
2021/09/13 11:50:54;;;;;;;;;;;;;;;19.36;66.98;101688.91;5056049;28;1156;-62
2021/09/13 11:53:19;;;;;;;;;;;;;;;19.39;67.25;101687.78;5055881;28;905;-63
2021/09/13 11:55:45;;;;;;;;;;;;;;;19.47;66.86;101687.97;5055160;28;1543;-62
2021/09/13 11:58:10;;;;;;;;;;;;;;;19.48;68.12;101688.81;5055560;28;1910;-62
2021/09/13 12:00:36;;;;;;;;;;;;;;;19.48;67.85;101684.28;5055796;28;978;-62
2021/09/13 12:03:02;;;;;;;;;;;;;;;19.36;67.87;101678.09;5055743;28;826;-62
2021/09/13 12:05:27;;;;;;;;;;;;;;;19.43;67.76;101683.81;5052796;28;1705;-62
2021/09/13 12:07:52;;;;;;;;;;;;;;;19.45;68.16;101676.44;5035756;28;810;-62
2021/09/13 12:10:17;;;;;;;;;;;;;;;19.43;68.30;101678.41;5035833;28;850;-62
2021/09/13 12:12:42;;;;;;;;;;;;;;;19.42;68.55;101669.44;5035499;28;903;-62
2021/09/13 12:15:07;;;;;;;;;;;;;;;19.48;68.43;101676.16;5035733;28;811;-62
2021/09/13 12:17:33;;;;;;;;;;;;;;;19.40;67.98;101678.69;5035315;28;1906;-62
2021/09/13 12:19:58;;;;;;;;;;;;;;;19.27;67.65;101667.25;5035343;28;873;-62
2021/09/13 12:22:23;;;;;;;;;;;;;;;19.27;67.63;101669.97;5035517;28;1044;-63
2021/09/13 12:24:48;;;;;;;;;;;;;;;19.26;67.56;101666.41;5035709;28;1620;-63
2021/09/13 12:27:13;;;;;;;;;;;;;;;19.31;66.91;101663.28;5035682;28;1543;-62
2021/09/13 12:29:38;;;;;;;;;;;;;;;19.35;67.78;101665.56;5035439;28;986;-62
2021/09/13 12:32:03;;;;;;;;;;;;;;;19.36;67.32;101669.13;5035224;28;911;-62
2021/09/13 12:34:28;;;;;;;;;;;;;;;19.25;67.16;101658.44;5035341;28;1642;-62
2021/09/13 12:36:53;;;;;;;;;;;;;;;19.22;66.96;101656.00;5035083;28;1914;-62
2021/09/13 12:39:18;;;;;;;;;;;;;;;19.18;67.76;101652.69;5035266;28;989;-63
2021/09/13 12:41:43;;;;;;;;;;;;;;;19.24;66.68;101646.75;5035259;28;996;-62
2021/09/13 12:44:08;;;;;;;;;;;;;;;19.27;67.43;101649.19;5035059;28;854;-62